LRTR/TSR METAR and TAF weather

Enter ICAO airport designator
Station Type Date Time Source
LRTR METAR 2022/07/03 15:00 UTC NOAA

LRTR 031500Z 08006KT 9999 FEW055CB 32/16 Q1015


Station Type Date Time Source
LRTR Decoded METAR 2022/07/03 15:00 UTC NOAA

Timisoara, Romania (LRTR) 45-46N 021-15E 88M
Jul 03, 2022 - 11:00 AM EDT / 2022.07.03 1500 UTC
Wind: from the E (080 degrees) at 7 MPH (6 KT):0
Visibility: greater than 7 mile(s):0
Sky conditions: mostly clear
Weather: Cumulonimbus clouds observed
Temperature: 89 F (32 C)
Dew Point: 60 F (16 C)
Relative Humidity: 38%
Pressure (altimeter): 29.97 in. Hg (1015 hPa)
ob: LRTR 031500Z 08006KT 9999 FEW055CB 32/16 Q1015
cycle: 15

Station Type Date Time Source
LRTR TAF 2022/07/03 12:37 UTC NOAA

TAF LRTR 031100Z 0312/0412 VRB04KT CAVOK

Example: see airport list